createdAt,value
2023-03-19T00:02:18.346Z,16.20
2023-03-19T00:05:21.074Z,18.88
2023-03-19T00:08:23.532Z,16.87
2023-03-19T00:11:26.208Z,16.80
2023-03-19T00:14:29.028Z,17.63
2023-03-19T00:17:31.532Z,16.85
2023-03-19T00:20:34.394Z,18.03
2023-03-19T00:23:37.642Z,20.30
2023-03-19T00:26:40.269Z,15.15
2023-03-19T00:29:42.809Z,18.20
2023-03-19T00:32:46.076Z,17.95
2023-03-19T00:35:48.691Z,16.93
2023-03-19T00:38:51.494Z,17.65
2023-03-19T00:41:54.592Z,16.50
2023-03-19T00:44:57.192Z,17.63
2023-03-19T00:48:00.319Z,15.98
2023-03-19T00:51:08.136Z,16.90
2023-03-19T00:54:12.489Z,19.27
2023-03-19T00:57:15.068Z,16.23
2023-03-19T01:00:19.479Z,15.77
2023-03-19T01:03:22.261Z,16.10
2023-03-19T01:06:24.932Z,16.83
2023-03-19T01:09:27.922Z,15.95
2023-03-19T01:12:30.500Z,16.20
2023-03-19T01:15:36.589Z,20.20
2023-03-19T01:18:39.392Z,18.33
2023-03-19T01:21:46.161Z,17.48
2023-03-19T01:24:51.408Z,16.55
2023-03-19T01:27:54.548Z,17.40
2023-03-19T01:31:02.992Z,16.73
2023-03-19T01:34:08.384Z,16.13
2023-03-19T01:37:31.053Z,26.67
2023-03-19T01:40:34.230Z,24.33
2023-03-19T01:43:37.592Z,23.98
2023-03-19T01:46:46.078Z,25.00
2023-03-19T01:49:57.549Z,25.15
2023-03-19T01:53:01.279Z,23.77
2023-03-19T01:56:25.266Z,23.92
2023-03-19T01:59:53.592Z,24.73
2023-03-19T02:03:03.067Z,17.92
2023-03-19T02:06:25.675Z,17.05
2023-03-19T02:09:29.665Z,19.23
2023-03-19T02:12:32.455Z,17.87
2023-03-19T02:15:35.022Z,20.90
2023-03-19T02:18:37.675Z,17.15
2023-03-19T02:21:41.214Z,20.67
2023-03-19T02:24:56.418Z,17.60
2023-03-19T02:28:01.536Z,19.87
2023-03-19T02:31:04.222Z,16.73
2023-03-19T02:34:08.036Z,16.70
2023-03-19T02:37:19.566Z,18.95
2023-03-19T02:40:31.178Z,17.23
2023-03-19T02:43:37.429Z,19.75
2023-03-19T02:46:39.954Z,17.92
2023-03-19T02:49:42.830Z,18.42
2023-03-19T02:52:45.944Z,32.60
2023-03-19T02:55:50.528Z,31.88
2023-03-19T02:58:53.453Z,21.10
2023-03-19T03:01:56.704Z,19.60
2023-03-19T03:04:59.246Z,19.23
2023-03-19T03:08:03.155Z,17.58
2023-03-19T03:11:05.939Z,18.75
2023-03-19T03:14:08.769Z,15.70
2023-03-19T03:17:11.742Z,20.13
2023-03-19T03:20:17.709Z,18.67
2023-03-19T03:23:22.126Z,16.40
2023-03-19T03:26:24.858Z,14.87
2023-03-19T03:29:28.167Z,14.85
2023-03-19T03:32:31.235Z,13.02
2023-03-19T03:35:34.067Z,14.20
2023-03-19T03:38:36.762Z,15.20
2023-03-19T03:41:39.319Z,14.43
2023-03-19T03:44:42.263Z,11.70
2023-03-19T03:47:44.997Z,12.77
2023-03-19T03:50:47.628Z,12.30
2023-03-19T03:53:53.801Z,13.15
2023-03-19T03:56:56.293Z,14.32
2023-03-19T03:59:58.898Z,13.40
2023-03-19T04:03:01.673Z,12.30
2023-03-19T04:06:04.468Z,15.10
2023-03-19T04:09:08.107Z,21.98
2023-03-19T04:12:11.732Z,20.08
2023-03-19T04:15:14.541Z,15.80
2023-03-19T04:18:20.739Z,16.33
2023-03-19T04:21:23.242Z,15.48
2023-03-19T04:24:26.348Z,14.77
2023-03-19T04:27:28.816Z,14.03
2023-03-19T04:30:33.497Z,13.68
2023-03-19T04:33:38.673Z,12.95
2023-03-19T04:36:41.406Z,18.08
2023-03-19T04:39:44.705Z,11.43
2023-03-19T04:42:47.735Z,10.52
2023-03-19T04:46:03.981Z,15.88
2023-03-19T04:49:06.987Z,14.52
2023-03-19T04:52:09.996Z,11.83
2023-03-19T04:55:13.220Z,12.98
2023-03-19T04:58:31.824Z,14.73
2023-03-19T05:01:38.423Z,15.73
2023-03-19T05:04:44.270Z,12.53
2023-03-19T05:07:49.499Z,18.10
2023-03-19T05:10:52.601Z,16.85
2023-03-19T05:13:55.391Z,16.47
2023-03-19T05:16:58.508Z,17.02
2023-03-19T05:20:05.028Z,14.93
2023-03-19T05:23:09.087Z,16.48
2023-03-19T05:26:22.832Z,18.77
2023-03-19T05:29:52.843Z,18.20
2023-03-19T05:33:18.202Z,16.50
2023-03-19T05:36:21.588Z,16.67
2023-03-19T05:39:41.848Z,16.63
2023-03-19T05:42:45.921Z,19.25
2023-03-19T05:45:54.578Z,18.88
2023-03-19T05:49:01.895Z,17.17
2023-03-19T05:52:05.129Z,18.13
2023-03-19T05:55:08.375Z,17.00
2023-03-19T05:58:18.077Z,18.17
2023-03-19T06:01:22.366Z,16.67
2023-03-19T06:04:27.732Z,16.13
2023-03-19T06:07:30.516Z,11.63
2023-03-19T06:10:36.434Z,13.98
2023-03-19T06:13:43.606Z,14.30
2023-03-19T06:16:51.173Z,15.23
2023-03-19T06:19:53.943Z,15.03
2023-03-19T06:22:56.684Z,13.57
2023-03-19T06:25:59.062Z,16.10
2023-03-19T06:29:05.336Z,15.40
2023-03-19T06:32:08.841Z,14.87
2023-03-19T06:35:18.104Z,15.05
2023-03-19T06:38:23.302Z,14.20
2023-03-19T06:41:26.162Z,14.20
2023-03-19T06:44:33.575Z,14.70
2023-03-19T06:47:36.167Z,14.60
2023-03-19T06:50:39.272Z,15.32
2023-03-19T06:53:41.783Z,11.18
2023-03-19T06:56:44.419Z,11.00
2023-03-19T06:59:46.923Z,16.10
2023-03-19T07:02:50.094Z,12.10
2023-03-19T07:05:52.815Z,11.45
2023-03-19T07:08:56.198Z,14.02
2023-03-19T07:11:58.752Z,14.67
2023-03-19T07:15:01.395Z,13.90
2023-03-19T07:18:04.115Z,11.55
2023-03-19T07:21:07.287Z,10.35
2023-03-19T07:24:10.069Z,10.15
2023-03-19T07:27:12.709Z,8.83
2023-03-19T07:30:16.193Z,6.40
2023-03-19T07:33:19.414Z,9.25
2023-03-19T07:36:22.117Z,7.03
2023-03-19T07:39:24.675Z,9.57
2023-03-19T07:42:27.445Z,5.77
2023-03-19T07:45:30.430Z,6.40
2023-03-19T07:48:33.304Z,6.10
2023-03-19T07:51:35.726Z,7.25
2023-03-19T07:54:38.776Z,6.38
2023-03-19T07:57:41.498Z,7.10
2023-03-19T08:00:45.257Z,4.80
2023-03-19T08:03:48.668Z,6.10
2023-03-19T08:06:51.358Z,7.18
2023-03-19T08:09:53.804Z,4.13
2023-03-19T08:12:56.836Z,5.90
2023-03-19T08:15:59.425Z,5.97
2023-03-19T08:19:02.292Z,4.93
2023-03-19T08:22:05.258Z,7.30
2023-03-19T08:25:08.650Z,5.32
2023-03-19T08:28:11.272Z,6.37
2023-03-19T08:31:14.463Z,5.77
2023-03-19T08:34:17.018Z,5.60
2023-03-19T08:37:19.607Z,9.27
2023-03-19T08:40:23.016Z,6.75
2023-03-19T08:43:25.492Z,6.20
2023-03-19T08:46:29.297Z,5.53
2023-03-19T08:49:32.379Z,6.18
2023-03-19T08:52:35.146Z,5.60
2023-03-19T08:55:37.996Z,6.10
2023-03-19T08:58:42.202Z,7.23
2023-03-19T09:01:44.724Z,7.30
2023-03-19T09:04:47.755Z,6.70
2023-03-19T09:07:52.351Z,10.00
2023-03-19T09:10:55.674Z,5.40
2023-03-19T09:13:58.546Z,6.37
2023-03-19T09:17:01.340Z,5.00
2023-03-19T09:20:06.033Z,5.63
2023-03-19T09:23:08.931Z,8.50
2023-03-19T09:26:11.377Z,6.88
2023-03-19T09:29:14.538Z,5.20
2023-03-19T09:32:17.412Z,4.60
2023-03-19T09:35:19.847Z,6.78
2023-03-19T09:38:22.725Z,7.05
2023-03-19T09:41:46.574Z,7.55
2023-03-19T09:44:49.372Z,5.60
2023-03-19T09:47:58.017Z,8.07
2023-03-19T09:51:06.609Z,6.93
2023-03-19T09:54:21.212Z,7.72
2023-03-19T09:57:24.117Z,5.25
2023-03-19T10:00:34.229Z,6.73
2023-03-19T10:03:47.718Z,7.80
2023-03-19T10:06:59.518Z,8.07
2023-03-19T10:10:22.448Z,6.03
2023-03-19T10:13:39.605Z,7.80
2023-03-19T10:16:46.868Z,4.87
2023-03-19T10:20:03.578Z,7.40
2023-03-19T10:23:37.602Z,7.93
2023-03-19T10:26:40.736Z,5.18
2023-03-19T10:29:43.498Z,7.22
2023-03-19T10:32:54.338Z,7.50
2023-03-19T10:36:02.201Z,4.83
2023-03-19T10:39:07.573Z,7.47
2023-03-19T10:42:46.998Z,6.82
2023-03-19T10:45:49.744Z,5.75
2023-03-19T10:48:52.192Z,5.23
2023-03-19T10:51:57.348Z,7.17
2023-03-19T10:55:12.675Z,6.72
2023-03-19T10:58:18.017Z,6.53
2023-03-19T11:01:20.831Z,6.53
2023-03-19T11:04:26.444Z,8.00
2023-03-19T11:07:33.298Z,6.47
2023-03-19T11:10:36.577Z,5.70
2023-03-19T11:13:39.076Z,6.88
2023-03-19T11:16:59.365Z,7.65
2023-03-19T11:20:27.553Z,6.50
2023-03-19T11:23:31.742Z,6.97
2023-03-19T11:26:34.170Z,8.10
2023-03-19T11:29:41.569Z,5.85
2023-03-19T11:33:05.620Z,6.85
2023-03-19T11:36:38.136Z,7.03
2023-03-19T11:39:59.321Z,7.83
2023-03-19T11:43:26.360Z,6.25
2023-03-19T11:46:44.158Z,9.40
2023-03-19T11:50:03.121Z,8.02
2023-03-19T11:53:22.492Z,6.03
2023-03-19T11:56:44.886Z,5.33
2023-03-19T11:59:56.803Z,5.60
2023-03-19T12:03:27.171Z,6.45
2023-03-19T12:06:35.302Z,6.10
2023-03-19T12:09:49.809Z,6.20
2023-03-19T12:13:16.920Z,6.47
2023-03-19T12:16:56.295Z,7.18
2023-03-19T12:20:22.531Z,6.60
2023-03-19T12:23:45.418Z,7.28
2023-03-19T12:26:59.903Z,7.00
2023-03-19T12:30:14.659Z,5.00
2023-03-19T12:33:49.023Z,5.00
2023-03-19T12:37:08.844Z,6.20
2023-03-19T12:40:20.570Z,5.72
2023-03-19T12:43:32.624Z,5.83
2023-03-19T12:46:53.784Z,6.27
2023-03-19T12:49:59.089Z,6.90
2023-03-19T12:53:05.857Z,5.65
2023-03-19T12:56:19.999Z,6.55
2023-03-19T12:59:38.396Z,4.73
2023-03-19T13:02:52.051Z,4.90
2023-03-19T13:06:00.619Z,5.93
2023-03-19T13:09:28.931Z,4.57
2023-03-19T13:12:35.313Z,5.38
2023-03-19T13:15:46.345Z,5.93
2023-03-19T13:19:10.418Z,7.17
2023-03-19T13:22:17.335Z,4.93
2023-03-19T13:25:25.642Z,5.53
2023-03-19T13:28:35.069Z,4.95
2023-03-19T13:31:38.461Z,6.33
2023-03-19T13:34:41.372Z,4.90
2023-03-19T13:37:44.803Z,6.95
2023-03-19T13:40:53.102Z,4.93
2023-03-19T13:43:55.903Z,7.15
2023-03-19T13:47:26.711Z,9.53
2023-03-19T13:50:30.676Z,7.70
2023-03-19T13:53:35.292Z,6.60
2023-03-19T13:57:19.532Z,4.85
2023-03-19T14:00:46.713Z,5.53
2023-03-19T14:03:58.789Z,4.67
2023-03-19T14:07:24.293Z,4.73
2023-03-19T14:10:32.048Z,5.25
2023-03-19T14:13:40.873Z,6.70
2023-03-19T14:16:46.620Z,4.88
2023-03-19T14:19:52.303Z,6.03
2023-03-19T14:23:09.399Z,7.07
2023-03-19T14:26:19.344Z,6.85
2023-03-19T14:29:26.396Z,6.20
2023-03-19T14:32:41.157Z,5.28
2023-03-19T14:35:46.415Z,8.83
2023-03-19T14:38:54.557Z,8.57
2023-03-19T14:42:06.208Z,5.32
2023-03-19T14:45:42.505Z,5.55
2023-03-19T14:49:22.521Z,4.63
2023-03-19T14:52:35.084Z,5.70
2023-03-19T14:55:38.551Z,7.43
2023-03-19T14:58:53.233Z,7.53
2023-03-19T15:01:56.414Z,5.80
2023-03-19T15:05:00.947Z,7.03
2023-03-19T15:08:07.485Z,7.83
2023-03-19T15:11:19.320Z,5.90
2023-03-19T15:14:42.120Z,5.15
2023-03-19T15:17:51.645Z,5.25
2023-03-19T15:21:03.636Z,6.05
2023-03-19T15:24:16.170Z,5.23
2023-03-19T15:27:23.661Z,4.53
2023-03-19T15:30:29.200Z,5.32
2023-03-19T15:33:41.420Z,4.70
2023-03-19T15:36:46.648Z,5.65
2023-03-19T15:39:52.811Z,4.87
2023-03-19T15:42:58.468Z,5.07
2023-03-19T15:46:01.537Z,5.70
2023-03-19T15:49:12.832Z,4.78
2023-03-19T15:52:18.206Z,5.75
2023-03-19T15:55:21.422Z,6.87
2023-03-19T15:58:27.474Z,6.23
2023-03-19T16:01:32.513Z,8.32
2023-03-19T16:04:53.965Z,8.07
2023-03-19T16:08:02.070Z,9.00
2023-03-19T16:11:28.453Z,6.80
2023-03-19T16:14:41.272Z,5.90
2023-03-19T16:17:43.909Z,8.35
2023-03-19T16:21:05.648Z,9.27
2023-03-19T16:24:25.030Z,9.50
2023-03-19T16:27:37.878Z,6.37
2023-03-19T16:30:46.987Z,6.17
2023-03-19T16:33:52.938Z,7.38
2023-03-19T16:36:55.796Z,7.80
2023-03-19T16:40:20.621Z,7.28
2023-03-19T16:43:25.220Z,12.20
2023-03-19T16:46:28.320Z,9.07
2023-03-19T16:49:31.192Z,9.38
2023-03-19T16:52:36.554Z,7.30
2023-03-19T16:55:39.656Z,12.95
2023-03-19T16:58:46.355Z,10.67
2023-03-19T17:01:48.907Z,8.53
2023-03-19T17:04:51.771Z,10.80
2023-03-19T17:07:57.940Z,15.75
2023-03-19T17:11:00.873Z,12.68
2023-03-19T17:14:06.410Z,13.97
2023-03-19T17:17:27.278Z,13.27
2023-03-19T17:20:34.350Z,17.23
2023-03-19T17:23:38.050Z,16.00
2023-03-19T17:26:41.424Z,16.50
2023-03-19T17:29:44.526Z,16.77
2023-03-19T17:32:49.796Z,12.93
2023-03-19T17:35:54.425Z,17.63
2023-03-19T17:38:57.438Z,24.40
2023-03-19T17:42:00.425Z,22.70
2023-03-19T17:45:04.665Z,26.30
2023-03-19T17:48:16.662Z,36.83
2023-03-19T17:51:19.876Z,28.45
2023-03-19T17:54:22.829Z,29.42
2023-03-19T17:57:26.916Z,25.80
2023-03-19T18:00:30.120Z,26.27
2023-03-19T18:03:35.272Z,24.77
2023-03-19T18:06:42.467Z,25.02
2023-03-19T18:09:45.473Z,17.20
2023-03-19T18:12:49.545Z,33.60
2023-03-19T18:15:52.355Z,34.80
2023-03-19T18:18:59.065Z,27.87
2023-03-19T18:22:02.752Z,20.63
2023-03-19T18:25:05.614Z,21.00
2023-03-19T18:28:09.890Z,14.55
2023-03-19T18:31:20.207Z,15.87
2023-03-19T18:34:23.077Z,17.73
2023-03-19T18:37:25.732Z,15.75
2023-03-19T18:40:31.216Z,14.60
2023-03-19T18:43:34.112Z,11.00
2023-03-19T18:46:38.908Z,12.03
2023-03-19T18:49:43.005Z,9.67
2023-03-19T18:52:48.171Z,11.23
2023-03-19T18:55:51.452Z,8.32
2023-03-19T18:58:57.503Z,8.43
2023-03-19T19:02:03.783Z,8.40
2023-03-19T19:05:06.815Z,10.20
2023-03-19T19:08:18.532Z,9.13
2023-03-19T19:11:22.643Z,14.13
2023-03-19T19:14:26.121Z,18.85
2023-03-19T19:17:32.026Z,18.43
2023-03-19T19:20:35.169Z,16.33
2023-03-19T19:23:37.760Z,16.77
2023-03-19T19:26:44.548Z,14.90
2023-03-19T19:29:47.849Z,19.75
2023-03-19T19:32:50.948Z,17.00
2023-03-19T19:35:55.956Z,16.27
2023-03-19T19:39:00.863Z,17.65
2023-03-19T19:42:03.819Z,15.02
2023-03-19T19:45:07.165Z,15.30
2023-03-19T19:48:16.406Z,15.07
2023-03-19T19:51:21.799Z,11.87
2023-03-19T19:54:25.781Z,14.13
2023-03-19T19:57:28.567Z,12.00
2023-03-19T20:00:32.267Z,11.43
2023-03-19T20:03:35.634Z,10.00
2023-03-19T20:06:39.376Z,15.50
2023-03-19T20:09:42.550Z,19.40
2023-03-19T20:12:48.501Z,16.95
2023-03-19T20:15:52.412Z,18.63
2023-03-19T20:18:55.367Z,16.10
2023-03-19T20:21:58.506Z,18.40
2023-03-19T20:25:01.596Z,14.10
2023-03-19T20:28:05.958Z,16.92
2023-03-19T20:31:33.056Z,18.15
2023-03-19T20:34:39.373Z,16.63
2023-03-19T20:37:43.103Z,17.97
2023-03-19T20:40:54.631Z,21.70
2023-03-19T20:44:00.889Z,18.83
2023-03-19T20:47:03.658Z,13.25
2023-03-19T20:50:09.566Z,13.70
2023-03-19T20:53:17.003Z,14.57
2023-03-19T20:56:24.648Z,15.45
2023-03-19T20:59:28.892Z,15.85
2023-03-19T21:02:32.366Z,15.23
2023-03-19T21:05:37.140Z,15.53
2023-03-19T21:08:42.827Z,15.83
2023-03-19T21:11:45.721Z,14.52
2023-03-19T21:14:48.412Z,16.58
2023-03-19T21:17:51.873Z,19.58
2023-03-19T21:20:56.922Z,18.47
2023-03-19T21:24:06.842Z,16.87
2023-03-19T21:27:21.616Z,17.65
2023-03-19T21:30:24.477Z,17.70
2023-03-19T21:33:29.917Z,18.08
2023-03-19T21:36:32.401Z,19.73
2023-03-19T21:39:34.884Z,20.40
2023-03-19T21:42:38.054Z,19.77
2023-03-19T21:45:41.252Z,19.20
2023-03-19T21:48:44.140Z,20.20
2023-03-19T21:51:47.141Z,20.93
2023-03-19T21:54:49.747Z,22.90
2023-03-19T21:57:56.816Z,19.63
2023-03-19T22:01:00.471Z,18.10
2023-03-19T22:04:03.130Z,19.98
2023-03-19T22:07:05.796Z,22.57
2023-03-19T22:10:08.862Z,23.73
2023-03-19T22:13:19.419Z,24.33
2023-03-19T22:16:24.747Z,20.25
2023-03-19T22:19:28.242Z,21.42
2023-03-19T22:22:32.307Z,20.47
2023-03-19T22:25:37.950Z,20.80
2023-03-19T22:28:42.660Z,26.15
2023-03-19T22:31:52.224Z,20.55
2023-03-19T22:34:54.819Z,17.90
2023-03-19T22:37:57.630Z,20.07
2023-03-19T22:41:01.122Z,19.57
2023-03-19T22:44:07.151Z,21.02
2023-03-19T22:47:20.069Z,16.50
2023-03-19T22:50:28.675Z,17.95
2023-03-19T22:53:36.195Z,16.73
2023-03-19T22:56:38.923Z,17.10
2023-03-19T22:59:44.716Z,16.40
2023-03-19T23:02:54.843Z,18.25
2023-03-19T23:06:01.609Z,15.27
2023-03-19T23:09:04.592Z,15.00
2023-03-19T23:15:11.626Z,14.98
2023-03-19T23:18:21.562Z,15.45
2023-03-19T23:21:24.201Z,17.83
2023-03-19T23:24:27.991Z,19.43
2023-03-19T23:27:31.039Z,16.13
2023-03-19T23:30:33.672Z,19.02
2023-03-19T23:33:36.241Z,18.38
2023-03-19T23:36:38.735Z,18.98
2023-03-19T23:39:44.984Z,17.50
2023-03-19T23:42:51.614Z,15.00
2023-03-19T23:45:55.757Z,17.48
2023-03-19T23:48:58.320Z,16.08
2023-03-19T23:52:03.571Z,20.00
2023-03-19T23:55:06.973Z,19.77
2023-03-19T23:58:09.789Z,19.00
